createdAt,value
2019-05-16T00:01:38.449Z,12.60
2019-05-16T00:04:08.704Z,12.50
2019-05-16T00:06:39.134Z,12.40
2019-05-16T00:09:08.240Z,12.40
2019-05-16T00:11:58.017Z,12.40
2019-05-16T00:14:28.135Z,12.40
2019-05-16T00:16:58.916Z,12.50
2019-05-16T00:19:28.779Z,12.40
2019-05-16T00:21:58.120Z,12.40
2019-05-16T00:24:29.011Z,12.40
2019-05-16T00:26:58.043Z,12.30
2019-05-16T00:29:27.705Z,12.40
2019-05-16T00:31:58.002Z,12.40
2019-05-16T00:34:27.960Z,12.40
2019-05-16T00:37:02.911Z,12.30
2019-05-16T00:39:31.484Z,12.40
2019-05-16T00:42:00.129Z,12.40
2019-05-16T00:44:28.751Z,12.40
2019-05-16T00:46:58.112Z,12.30
2019-05-16T00:49:28.084Z,12.20
2019-05-16T00:51:58.411Z,12.20
2019-05-16T00:54:48.516Z,12.20
2019-05-16T00:57:18.815Z,12.10
2019-05-16T00:59:48.968Z,12.20
2019-05-16T01:02:18.141Z,12.20
2019-05-16T01:04:48.717Z,12.20
2019-05-16T01:07:18.710Z,12.10
2019-05-16T01:09:48.793Z,12.00
2019-05-16T01:12:17.898Z,12.00
2019-05-16T01:14:47.837Z,11.90
2019-05-16T01:17:18.209Z,11.90
2019-05-16T01:19:48.476Z,11.90
2019-05-16T01:22:18.686Z,12.00
2019-05-16T01:24:49.301Z,12.00
2019-05-16T01:27:18.456Z,12.00
2019-05-16T01:29:47.740Z,11.90
2019-05-16T01:32:18.837Z,11.90
2019-05-16T01:34:48.334Z,11.90
2019-05-16T01:37:18.582Z,11.90
2019-05-16T01:39:48.397Z,11.70
2019-05-16T01:42:18.414Z,11.70
2019-05-16T01:44:48.754Z,11.80
2019-05-16T01:47:18.314Z,11.80
2019-05-16T01:49:48.763Z,11.70
2019-05-16T01:52:17.898Z,11.80
2019-05-16T01:54:48.128Z,11.70
2019-05-16T01:57:18.149Z,11.90
2019-05-16T01:59:48.603Z,12.10
2019-05-16T02:02:18.448Z,11.90
2019-05-16T02:04:48.543Z,11.90
2019-05-16T02:07:18.804Z,11.80
2019-05-16T02:09:47.996Z,11.80
2019-05-16T02:12:18.505Z,11.80
2019-05-16T02:14:48.072Z,11.80
2019-05-16T02:17:18.361Z,12.00
2019-05-16T02:19:48.547Z,12.10
2019-05-16T02:22:17.918Z,12.20
2019-05-16T02:24:47.997Z,12.20
2019-05-16T02:27:18.187Z,12.20
2019-05-16T02:30:06.790Z,12.10
2019-05-16T02:32:35.867Z,12.00
2019-05-16T02:35:06.137Z,11.90
2019-05-16T02:37:35.392Z,11.90
2019-05-16T02:40:11.610Z,12.00
2019-05-16T02:42:43.237Z,11.90
2019-05-16T02:45:32.417Z,11.80
2019-05-16T02:48:01.649Z,11.70
2019-05-16T02:50:31.648Z,11.60
2019-05-16T02:53:01.753Z,11.60
2019-05-16T02:55:30.947Z,11.60
2019-05-16T02:58:12.292Z,11.50
2019-05-16T03:00:42.881Z,11.40
2019-05-16T03:03:12.269Z,11.40
2019-05-16T03:05:44.041Z,11.40
2019-05-16T03:08:14.492Z,11.40
2019-05-16T03:10:43.974Z,11.40
2019-05-16T03:13:13.787Z,11.40
2019-05-16T03:15:45.061Z,11.40
2019-05-16T03:18:16.289Z,11.30
2019-05-16T03:20:46.652Z,11.30
2019-05-16T03:23:15.575Z,11.20
2019-05-16T03:25:44.137Z,11.00
2019-05-16T03:28:12.753Z,10.90
2019-05-16T03:30:44.490Z,10.90
2019-05-16T03:33:19.195Z,10.90
2019-05-16T03:35:44.645Z,10.90
2019-05-16T03:38:12.477Z,10.80
2019-05-16T03:40:41.445Z,10.80
2019-05-16T03:43:11.556Z,10.80
2019-05-16T03:45:41.794Z,10.70
2019-05-16T03:48:11.931Z,10.70
2019-05-16T03:50:41.330Z,10.70
2019-05-16T03:53:12.147Z,10.70
2019-05-16T03:55:41.122Z,10.70
2019-05-16T03:58:11.684Z,10.70
2019-05-16T04:00:53.236Z,10.80
2019-05-16T04:03:33.506Z,10.70
2019-05-16T04:06:02.180Z,10.70
2019-05-16T04:08:31.277Z,10.70
2019-05-16T04:11:01.280Z,10.60
2019-05-16T04:13:31.693Z,10.50
2019-05-16T04:16:01.265Z,10.50
2019-05-16T04:18:31.905Z,10.50
2019-05-16T04:21:01.471Z,10.50
2019-05-16T04:23:31.421Z,10.50
2019-05-16T04:26:00.831Z,10.50
2019-05-16T04:28:31.723Z,10.50
2019-05-16T04:31:01.884Z,10.50
2019-05-16T04:33:31.128Z,10.50
2019-05-16T04:36:01.216Z,10.50
2019-05-16T04:38:40.024Z,10.50
2019-05-16T04:41:01.442Z,10.60
2019-05-16T04:43:31.637Z,10.50
2019-05-16T04:46:01.368Z,10.60
2019-05-16T04:48:31.085Z,10.70
2019-05-16T04:51:01.445Z,10.70
2019-05-16T04:53:31.556Z,10.90
2019-05-16T04:56:01.694Z,11.20
2019-05-16T04:58:32.461Z,11.30
2019-05-16T05:01:01.693Z,11.40
2019-05-16T05:03:31.653Z,11.40
2019-05-16T05:06:01.476Z,11.60
2019-05-16T05:08:40.801Z,11.70
2019-05-16T05:11:01.445Z,11.70
2019-05-16T05:13:30.834Z,11.60
2019-05-16T05:16:01.375Z,11.70
2019-05-16T05:18:30.551Z,11.80
2019-05-16T05:21:00.934Z,11.90
2019-05-16T05:23:30.283Z,11.90
2019-05-16T05:26:00.397Z,12.00
2019-05-16T05:28:29.933Z,12.00
2019-05-16T05:30:59.807Z,11.90
2019-05-16T05:33:31.077Z,12.00
2019-05-16T05:36:01.081Z,12.00
2019-05-16T05:38:31.094Z,12.00
2019-05-16T05:41:00.280Z,12.00
2019-05-16T05:43:30.757Z,11.90
2019-05-16T05:46:00.677Z,11.90
2019-05-16T05:48:30.815Z,12.00
2019-05-16T05:51:00.301Z,12.00
2019-05-16T05:53:30.066Z,12.10
2019-05-16T05:56:00.489Z,12.00
2019-05-16T05:58:30.819Z,12.10
2019-05-16T06:01:00.789Z,12.10
2019-05-16T06:03:32.796Z,12.20
2019-05-16T06:06:01.057Z,12.20
2019-05-16T06:08:30.806Z,12.20
2019-05-16T06:11:00.725Z,12.10
2019-05-16T06:13:31.382Z,12.20
2019-05-16T06:16:00.420Z,12.20
2019-05-16T06:18:30.607Z,12.30
2019-05-16T06:21:00.545Z,12.50
2019-05-16T06:23:31.125Z,12.40
2019-05-16T06:26:00.639Z,12.40
2019-05-16T06:28:30.831Z,12.30
2019-05-16T06:31:01.981Z,12.30
2019-05-16T06:33:33.120Z,12.40
2019-05-16T06:36:01.732Z,12.50
2019-05-16T06:38:33.125Z,12.50
2019-05-16T06:41:01.972Z,12.60
2019-05-16T06:43:30.630Z,12.60
2019-05-16T06:46:01.050Z,12.50
2019-05-16T06:48:30.387Z,12.60
2019-05-16T06:51:02.962Z,12.60
2019-05-16T06:53:31.296Z,12.60
2019-05-16T06:56:00.213Z,12.60
2019-05-16T06:58:30.211Z,12.60
2019-05-16T07:01:03.384Z,12.70
2019-05-16T07:03:31.118Z,12.80
2019-05-16T07:06:00.502Z,12.90
2019-05-16T07:08:31.019Z,12.90
2019-05-16T07:11:00.077Z,12.80
2019-05-16T07:13:30.403Z,12.90
2019-05-16T07:16:00.602Z,12.80
2019-05-16T07:18:31.014Z,12.80
2019-05-16T07:21:00.451Z,12.70
2019-05-16T07:23:29.880Z,12.70
2019-05-16T07:26:00.775Z,12.90
2019-05-16T07:28:30.168Z,12.90
2019-05-16T07:31:00.684Z,13.10
2019-05-16T07:33:31.137Z,13.10
2019-05-16T07:36:00.357Z,13.10
2019-05-16T07:38:30.975Z,13.10
2019-05-16T07:41:00.289Z,13.20
2019-05-16T07:43:30.875Z,13.30
2019-05-16T07:46:00.626Z,13.40
2019-05-16T07:48:31.649Z,13.40
2019-05-16T07:51:00.663Z,13.40
2019-05-16T07:53:32.761Z,13.50
2019-05-16T07:56:00.274Z,13.40
2019-05-16T07:58:31.242Z,13.40
2019-05-16T08:01:04.682Z,13.50
2019-05-16T08:03:30.377Z,13.50
2019-05-16T08:06:01.808Z,13.60
2019-05-16T08:08:31.335Z,13.60
2019-05-16T08:11:01.497Z,13.70
2019-05-16T08:13:30.923Z,13.70
2019-05-16T08:16:01.746Z,13.60
2019-05-16T08:18:30.630Z,13.70
2019-05-16T08:21:01.513Z,13.80
2019-05-16T08:23:30.890Z,13.80
2019-05-16T08:26:01.240Z,13.80
2019-05-16T08:28:31.178Z,13.90
2019-05-16T08:31:00.906Z,14.00
2019-05-16T08:33:32.068Z,14.00
2019-05-16T08:36:04.817Z,14.10
2019-05-16T08:38:31.087Z,14.00
2019-05-16T08:43:31.626Z,14.10
2019-05-16T08:46:01.422Z,14.20
2019-05-16T08:48:31.967Z,14.30
2019-05-16T08:53:32.170Z,14.40
2019-05-16T08:56:21.786Z,14.40
2019-05-16T08:58:54.980Z,14.40
2019-05-16T09:01:21.817Z,14.40
2019-05-16T09:03:52.158Z,14.40
2019-05-16T09:06:22.796Z,14.30
2019-05-16T09:08:52.574Z,14.30
2019-05-16T09:10:38.940Z,14.30
2019-05-16T09:10:40.142Z,14.00
2019-05-16T09:11:38.988Z,14.40
2019-05-16T09:13:51.579Z,14.40
2019-05-16T09:16:20.331Z,14.50
2019-05-16T09:18:52.060Z,14.40
2019-05-16T09:21:19.587Z,14.30
2019-05-16T09:23:48.452Z,14.30
2019-05-16T09:26:20.949Z,14.20
2019-05-16T09:29:08.274Z,14.20
2019-05-16T09:31:38.574Z,14.30
2019-05-16T09:34:07.531Z,14.40
2019-05-16T09:36:37.166Z,14.50
2019-05-16T09:39:08.675Z,14.60
2019-05-16T09:41:47.827Z,14.50
2019-05-16T09:44:09.033Z,14.40
2019-05-16T09:46:38.274Z,14.50
2019-05-16T09:49:16.764Z,14.50
2019-05-16T09:51:37.737Z,14.50
2019-05-16T09:54:07.287Z,14.60
2019-05-16T09:56:36.972Z,14.60
2019-05-16T09:59:06.967Z,14.70
2019-05-16T10:01:37.005Z,14.80
2019-05-16T10:04:06.691Z,15.00
2019-05-16T10:06:37.125Z,15.00
2019-05-16T10:09:08.802Z,15.00
2019-05-16T10:11:41.813Z,14.90
2019-05-16T10:14:07.889Z,15.00
2019-05-16T10:16:37.460Z,15.00
2019-05-16T10:19:07.494Z,15.00
2019-05-16T10:21:37.150Z,15.10
2019-05-16T10:24:07.305Z,15.20
2019-05-16T10:26:37.227Z,15.10
2019-05-16T10:29:10.466Z,15.20
2019-05-16T10:31:44.649Z,15.20
2019-05-16T10:34:07.657Z,15.20
2019-05-16T10:36:37.366Z,15.20
2019-05-16T10:39:07.752Z,15.30
2019-05-16T10:41:37.239Z,15.40
2019-05-16T10:44:06.261Z,15.50
2019-05-16T10:46:37.701Z,15.50
2019-05-16T10:49:05.840Z,15.80
2019-05-16T10:51:34.451Z,15.80
2019-05-16T10:54:13.165Z,15.80
2019-05-16T10:56:34.651Z,15.80
2019-05-16T10:59:37.851Z,15.80
2019-05-16T11:01:36.639Z,15.80
2019-05-16T11:04:07.462Z,15.90
2019-05-16T11:06:41.704Z,16.10
2019-05-16T11:09:10.325Z,16.10
2019-05-16T11:11:39.128Z,16.30
2019-05-16T11:14:09.301Z,16.30
2019-05-16T11:16:44.042Z,16.30
2019-05-16T11:19:19.299Z,16.20
2019-05-16T11:21:43.725Z,16.20
2019-05-16T11:24:13.511Z,16.10
2019-05-16T11:26:42.395Z,16.10
2019-05-16T11:29:11.082Z,16.10
2019-05-16T11:31:39.617Z,16.10
2019-05-16T11:34:09.060Z,16.30
2019-05-16T11:36:38.212Z,16.40
2019-05-16T11:39:08.649Z,16.50
2019-05-16T11:41:39.285Z,16.50
2019-05-16T11:44:07.862Z,16.50
2019-05-16T11:46:37.541Z,16.50
2019-05-16T11:49:06.613Z,16.60
2019-05-16T11:51:38.207Z,16.70
2019-05-16T11:54:07.245Z,16.70
2019-05-16T11:56:37.059Z,16.80
2019-05-16T11:59:07.865Z,16.80
2019-05-16T12:01:37.013Z,16.80
2019-05-16T12:04:07.917Z,16.80
2019-05-16T12:06:37.413Z,16.80
2019-05-16T12:09:08.144Z,16.70
2019-05-16T12:11:38.314Z,16.80
2019-05-16T12:14:07.460Z,16.80
2019-05-16T12:16:38.080Z,16.80
2019-05-16T12:19:07.459Z,16.90
2019-05-16T12:21:36.775Z,16.80
2019-05-16T12:24:33.337Z,16.90
2019-05-16T12:26:56.862Z,16.90
2019-05-16T12:29:28.133Z,16.90
2019-05-16T12:32:02.388Z,16.90
2019-05-16T12:34:26.962Z,16.90
2019-05-16T12:36:56.616Z,16.90
2019-05-16T12:39:26.834Z,16.90
2019-05-16T12:41:59.012Z,16.80
2019-05-16T12:44:26.891Z,16.80
2019-05-16T12:46:56.960Z,16.90
2019-05-16T12:49:25.970Z,16.90
2019-05-16T12:51:56.942Z,16.90
2019-05-16T12:54:27.466Z,16.90
2019-05-16T12:56:58.022Z,16.80
2019-05-16T12:59:26.786Z,16.80
2019-05-16T13:01:57.677Z,16.90
2019-05-16T13:04:28.036Z,16.90
2019-05-16T13:06:57.903Z,16.90
2019-05-16T13:09:26.674Z,16.80
2019-05-16T13:11:57.776Z,16.90
2019-05-16T13:14:33.336Z,17.00
2019-05-16T13:17:01.962Z,17.00
2019-05-16T13:19:32.991Z,17.00
2019-05-16T13:22:01.507Z,17.00
2019-05-16T13:24:31.697Z,17.10
2019-05-16T13:27:00.386Z,17.00
2019-05-16T13:29:29.069Z,17.00
2019-05-16T13:31:57.826Z,17.00
2019-05-16T13:34:28.061Z,17.00
2019-05-16T13:36:57.928Z,17.00
2019-05-16T13:39:27.575Z,17.00
2019-05-16T13:41:56.630Z,17.00
2019-05-16T13:44:27.456Z,17.00
2019-05-16T13:46:56.944Z,17.00
2019-05-16T13:49:26.811Z,17.00
2019-05-16T13:51:55.518Z,17.10
2019-05-16T13:54:26.796Z,17.00
2019-05-16T13:56:57.236Z,17.00
2019-05-16T13:59:28.052Z,17.10
2019-05-16T14:01:57.293Z,17.10
2019-05-16T14:04:26.494Z,17.20
2019-05-16T14:06:58.604Z,17.10
2019-05-16T14:09:26.823Z,17.20
2019-05-16T14:11:56.445Z,17.10
2019-05-16T14:14:34.702Z,17.10
2019-05-16T14:16:56.920Z,17.10
2019-05-16T14:19:27.423Z,17.10
2019-05-16T14:21:56.946Z,17.10
2019-05-16T14:24:28.117Z,17.10
2019-05-16T14:26:57.381Z,17.10
2019-05-16T14:29:27.918Z,17.10
2019-05-16T14:31:56.889Z,17.10
2019-05-16T14:34:28.662Z,17.20
2019-05-16T14:36:57.942Z,17.10
2019-05-16T14:39:28.355Z,17.10
2019-05-16T14:41:57.750Z,17.00
2019-05-16T14:44:28.696Z,17.00
2019-05-16T14:46:57.682Z,17.10
2019-05-16T14:49:28.733Z,17.20
2019-05-16T14:51:58.018Z,17.20
2019-05-16T14:54:26.958Z,17.20
2019-05-16T14:57:00.308Z,17.10
2019-05-16T14:59:28.851Z,17.10
2019-05-16T15:01:58.115Z,17.10
2019-05-16T15:04:30.161Z,17.10
2019-05-16T15:06:57.307Z,17.20
2019-05-16T15:09:28.240Z,17.20
2019-05-16T15:11:58.102Z,17.20
2019-05-16T15:14:28.079Z,17.30
2019-05-16T15:16:57.591Z,17.30
2019-05-16T15:19:26.382Z,17.30
2019-05-16T15:21:56.941Z,17.20
2019-05-16T15:24:26.831Z,17.30
2019-05-16T15:26:57.770Z,17.20
2019-05-16T15:29:27.025Z,17.10
2019-05-16T15:31:57.339Z,17.20
2019-05-16T15:34:29.835Z,17.20
2019-05-16T15:36:59.824Z,17.20
2019-05-16T15:39:27.586Z,17.20
2019-05-16T15:42:18.073Z,17.20
2019-05-16T15:44:46.676Z,17.10
2019-05-16T15:47:17.414Z,17.10
2019-05-16T15:49:47.706Z,17.20
2019-05-16T15:52:17.655Z,17.30
2019-05-16T15:54:48.656Z,17.20
2019-05-16T15:57:17.716Z,17.20
2019-05-16T15:59:47.079Z,17.10
2019-05-16T16:02:17.666Z,17.20
2019-05-16T16:04:47.809Z,17.20
2019-05-16T16:07:18.099Z,17.10
2019-05-16T16:09:47.223Z,17.10
2019-05-16T16:12:16.973Z,17.10
2019-05-16T16:14:46.709Z,17.10
2019-05-16T16:17:17.644Z,17.10
2019-05-16T16:19:46.912Z,17.10
2019-05-16T16:22:17.772Z,17.20
2019-05-16T16:24:47.864Z,17.20
2019-05-16T16:27:17.042Z,17.10
2019-05-16T16:29:48.046Z,17.10
2019-05-16T16:32:17.329Z,17.10
2019-05-16T16:34:48.873Z,17.00
2019-05-16T16:37:16.883Z,17.00
2019-05-16T16:39:47.153Z,17.00
2019-05-16T16:42:16.117Z,17.00
2019-05-16T16:44:47.063Z,17.00
2019-05-16T16:47:17.433Z,17.00
2019-05-16T16:49:45.380Z,17.00
2019-05-16T16:52:16.549Z,16.90
2019-05-16T16:54:44.569Z,16.90
2019-05-16T16:57:13.255Z,16.90
2019-05-16T16:59:42.252Z,16.90
2019-05-16T17:02:10.893Z,16.90
2019-05-16T17:04:50.898Z,16.90
2019-05-16T17:07:17.543Z,16.90
2019-05-16T17:09:47.138Z,16.90
2019-05-16T17:12:15.981Z,16.90
2019-05-16T17:14:46.444Z,16.90
2019-05-16T17:17:17.576Z,16.90
2019-05-16T17:19:47.462Z,16.90
2019-05-16T17:22:20.489Z,16.80
2019-05-16T17:24:47.294Z,16.90
2019-05-16T17:27:16.102Z,16.80
2019-05-16T17:29:47.237Z,16.80
2019-05-16T17:32:16.667Z,16.80
2019-05-16T17:34:45.177Z,16.80
2019-05-16T17:37:14.022Z,16.80
2019-05-16T17:39:42.610Z,16.80
2019-05-16T17:42:16.660Z,16.80
2019-05-16T17:44:47.253Z,16.70
2019-05-16T17:47:17.309Z,16.70
2019-05-16T17:49:52.303Z,16.70
2019-05-16T17:52:20.884Z,16.70
2019-05-16T17:54:49.717Z,16.70
2019-05-16T17:57:18.461Z,16.70
2019-05-16T17:59:47.943Z,16.70
2019-05-16T18:02:17.303Z,16.70
2019-05-16T18:04:47.156Z,16.70
2019-05-16T18:07:15.961Z,16.70
2019-05-16T18:09:44.651Z,16.70
2019-05-16T18:12:13.204Z,16.70
2019-05-16T18:14:41.844Z,16.70
2019-05-16T18:17:10.471Z,16.70
2019-05-16T18:19:38.950Z,16.70
2019-05-16T18:22:07.607Z,16.70
2019-05-16T18:24:36.909Z,16.60
2019-05-16T18:27:06.726Z,16.50
2019-05-16T18:29:36.539Z,16.50
2019-05-16T18:32:10.417Z,16.50
2019-05-16T18:34:39.680Z,16.40
2019-05-16T18:37:08.321Z,16.30
2019-05-16T18:39:37.082Z,16.20
2019-05-16T18:42:06.156Z,16.20
2019-05-16T18:44:36.600Z,16.20
2019-05-16T18:47:10.975Z,16.10
2019-05-16T18:49:36.781Z,16.00
2019-05-16T18:52:06.534Z,15.90
2019-05-16T18:54:37.520Z,15.70
2019-05-16T18:57:07.027Z,15.60
2019-05-16T18:59:36.894Z,15.60
2019-05-16T19:02:09.692Z,15.60
2019-05-16T19:04:37.925Z,15.50
2019-05-16T19:07:07.906Z,15.40
2019-05-16T19:09:37.440Z,15.40
2019-05-16T19:12:06.637Z,15.40
2019-05-16T19:14:36.857Z,15.40
2019-05-16T19:17:20.572Z,15.50
2019-05-16T19:19:37.654Z,15.40
2019-05-16T19:22:07.401Z,15.40
2019-05-16T19:24:36.162Z,15.40
2019-05-16T19:27:06.752Z,15.40
2019-05-16T19:29:36.869Z,15.30
2019-05-16T19:32:06.677Z,15.30
2019-05-16T19:34:57.276Z,15.30
2019-05-16T19:37:25.526Z,15.30
2019-05-16T19:39:54.067Z,15.20
2019-05-16T19:42:22.758Z,15.10
2019-05-16T19:44:51.297Z,15.00
2019-05-16T19:47:19.818Z,15.00
2019-05-16T19:49:48.408Z,15.00
2019-05-16T19:52:17.113Z,15.10
2019-05-16T19:54:47.129Z,15.20
2019-05-16T19:57:17.430Z,15.30
2019-05-16T19:59:47.268Z,15.20
2019-05-16T20:02:16.642Z,15.20
2019-05-16T20:04:47.070Z,15.10
2019-05-16T20:07:16.794Z,15.00
2019-05-16T20:09:46.971Z,15.00
2019-05-16T20:12:16.919Z,14.90
2019-05-16T20:14:47.278Z,14.90
2019-05-16T20:17:16.192Z,14.90
2019-05-16T20:19:47.091Z,14.80
2019-05-16T20:22:16.647Z,14.80
2019-05-16T20:24:46.909Z,14.80
2019-05-16T20:27:17.095Z,14.70
2019-05-16T20:29:47.451Z,14.70
2019-05-16T20:32:16.901Z,14.70
2019-05-16T20:34:46.857Z,14.70
2019-05-16T20:37:17.360Z,14.70
2019-05-16T20:39:46.677Z,14.70
2019-05-16T20:42:17.081Z,14.70
2019-05-16T20:44:46.371Z,14.80
2019-05-16T20:47:16.615Z,14.70
2019-05-16T20:49:47.793Z,14.60
2019-05-16T20:52:17.466Z,14.60
2019-05-16T20:54:46.569Z,14.60
2019-05-16T20:57:17.241Z,14.70
2019-05-16T20:59:46.339Z,14.70
2019-05-16T21:02:16.676Z,14.60
2019-05-16T21:04:46.487Z,14.60
2019-05-16T21:07:17.112Z,14.60
2019-05-16T21:09:45.594Z,14.60
2019-05-16T21:12:14.196Z,14.60
2019-05-16T21:14:42.782Z,14.70
2019-05-16T21:17:11.397Z,14.70
2019-05-16T21:19:39.985Z,14.80
2019-05-16T21:22:08.699Z,14.80
2019-05-16T21:24:37.468Z,14.80
2019-05-16T21:27:06.365Z,14.70
2019-05-16T21:29:36.956Z,14.80
2019-05-16T21:32:07.480Z,14.70
2019-05-16T21:34:36.578Z,14.70
2019-05-16T21:37:14.389Z,14.70
2019-05-16T21:39:36.944Z,14.80
2019-05-16T21:42:07.466Z,14.80
2019-05-16T21:44:37.355Z,14.80
2019-05-16T21:47:06.389Z,14.90
2019-05-16T21:49:36.999Z,14.80
2019-05-16T21:52:05.481Z,14.80
2019-05-16T21:54:36.532Z,14.70
2019-05-16T21:57:04.363Z,14.70
2019-05-16T21:59:32.914Z,14.80
2019-05-16T22:02:01.648Z,14.70
2019-05-16T22:04:30.160Z,14.70
2019-05-16T22:06:58.829Z,14.70
2019-05-16T22:09:27.822Z,14.70
2019-05-16T22:11:57.306Z,14.70
2019-05-16T22:14:36.884Z,14.60
2019-05-16T22:17:11.091Z,14.70
2019-05-16T22:19:41.055Z,14.60
2019-05-16T22:22:09.696Z,14.70
2019-05-16T22:24:38.246Z,14.70
2019-05-16T22:27:06.989Z,14.70
2019-05-16T22:29:37.112Z,14.60
2019-05-16T22:32:07.084Z,14.60
2019-05-16T22:34:36.929Z,14.70
2019-05-16T22:37:06.559Z,14.60
2019-05-16T22:39:37.121Z,14.60
2019-05-16T22:42:06.394Z,14.50
2019-05-16T22:44:37.152Z,14.50
2019-05-16T22:47:17.582Z,14.40
2019-05-16T22:49:47.560Z,14.50
2019-05-16T22:52:17.179Z,14.40
2019-05-16T22:54:53.006Z,14.20
2019-05-16T22:57:21.609Z,14.20
2019-05-16T22:59:50.149Z,14.30
2019-05-16T23:02:18.734Z,14.30
2019-05-16T23:04:47.612Z,14.30
2019-05-16T23:07:16.552Z,14.20
2019-05-16T23:09:47.147Z,14.20
2019-05-16T23:12:17.344Z,14.20
2019-05-16T23:14:46.245Z,14.10
2019-05-16T23:17:17.090Z,14.10
2019-05-16T23:19:47.315Z,14.00
2019-05-16T23:22:16.714Z,14.00
2019-05-16T23:24:46.440Z,13.90
2019-05-16T23:27:15.225Z,13.90
2019-05-16T23:29:43.810Z,13.90
2019-05-16T23:32:12.477Z,13.90
2019-05-16T23:34:41.165Z,14.00
2019-05-16T23:37:09.654Z,13.90
2019-05-16T23:39:38.309Z,13.90
2019-05-16T23:42:07.107Z,13.90
2019-05-16T23:44:36.691Z,13.80
2019-05-16T23:47:07.074Z,13.80
2019-05-16T23:49:36.678Z,13.70
2019-05-16T23:52:07.517Z,13.60
2019-05-16T23:54:36.890Z,13.60
2019-05-16T23:57:06.545Z,13.60
2019-05-16T23:59:36.920Z,13.60
